DAL156 KSAN-KIAH
Flight info
| Callsign | DAL156 |
|---|---|
| Flight time | 3h 30m |
| Altitude | 33000 |
| Route | ZZOOO4 GBN J50 SSO ELP Q4 PEQ DIESL TTORO3 |
| Aircraft | A321/M-SDE3FGHIRWY/LB1 |
Departure
| Time | 2026-04-21 08:51 |
|---|---|
| Airport | San Diego International Airport (KSAN) |
Arrival
| Time | 2026-04-21 12:21 |
|---|---|
| Airport | George Bush Intercontinental Airport (KIAH) |
| Time | Latitude | Longitude | Altitude | Speed | Heading |
|---|---|---|---|---|---|
| 2026-04-21 08:18 | 32.73286 | -117.19555 | 23 ft | 0 kts | 275° |
| 2026-04-21 08:41 | 32.73286 | -117.19551 | 22 ft | 2 kts | 275° |
| 2026-04-21 08:42 | 32.73284 | -117.19529 | 22 ft | 3 kts | 275° |
| 2026-04-21 08:42 | 32.73282 | -117.19505 | 22 ft | 3 kts | 276° |
| 2026-04-21 08:42 | 32.73280 | -117.19483 | 22 ft | 3 kts | 274° |
| 2026-04-21 08:42 | 32.73280 | -117.19460 | 22 ft | 3 kts | 248° |
| 2026-04-21 08:43 | 32.73291 | -117.19445 | 24 ft | 3 kts | 212° |
| 2026-04-21 08:43 | 32.73308 | -117.19432 | 25 ft | 3 kts | 210° |
| 2026-04-21 08:43 | 32.73326 | -117.19420 | 23 ft | 3 kts | 211° |
| 2026-04-21 08:43 | 32.73335 | -117.19413 | 22 ft | 1 kts | 213° |
| 2026-04-21 08:44 | 32.73337 | -117.19411 | 23 ft | 0 kts | 213° |
| 2026-04-21 08:46 | 32.73333 | -117.19410 | 22 ft | 1 kts | 176° |
| 2026-04-21 08:47 | 32.73331 | -117.19388 | 22 ft | 6 kts | 94° |
| 2026-04-21 08:47 | 32.73327 | -117.19318 | 22 ft | 12 kts | 95° |
| 2026-04-21 08:47 | 32.73305 | -117.19182 | 22 ft | 21 kts | 106° |
| 2026-04-21 08:47 | 32.73265 | -117.19020 | 22 ft | 20 kts | 106° |
| 2026-04-21 08:48 | 32.73226 | -117.18866 | 24 ft | 20 kts | 107° |
| 2026-04-21 08:48 | 32.73190 | -117.18712 | 24 ft | 19 kts | 105° |
| 2026-04-21 08:48 | 32.73156 | -117.18568 | 27 ft | 15 kts | 105° |
| 2026-04-21 08:48 | 32.73136 | -117.18478 | 26 ft | 11 kts | 105° |
| 2026-04-21 08:49 | 32.73113 | -117.18382 | 25 ft | 12 kts | 106° |
| 2026-04-21 08:49 | 32.73089 | -117.18285 | 25 ft | 15 kts | 107° |
| 2026-04-21 08:49 | 32.73064 | -117.18144 | 24 ft | 16 kts | 75° |
| 2026-04-21 08:49 | 32.73146 | -117.18140 | 24 ft | 14 kts | 313° |
| 2026-04-21 08:50 | 32.73202 | -117.18312 | 26 ft | 45 kts | 289° |
| 2026-04-21 08:50 | 32.73355 | -117.18954 | 24 ft | 114 kts | 286° |
| 2026-04-21 08:50 | 32.73626 | -117.20065 | 27 ft | 166 kts | 286° |
| 2026-04-21 08:50 | 32.73972 | -117.21418 | 534 ft | 172 kts | 287° |
| 2026-04-21 08:51 | 32.74317 | -117.22781 | 1281 ft | 172 kts | 286° |
| 2026-04-21 08:51 | 32.74657 | -117.24141 | 1922 ft | 174 kts | 287° |
| 2026-04-21 08:51 | 32.75001 | -117.25600 | 1997 ft | 198 kts | 284° |
| 2026-04-21 08:51 | 32.75378 | -117.27249 | 2145 ft | 216 kts | 285° |
| 2026-04-21 08:52 | 32.75804 | -117.29052 | 2317 ft | 237 kts | 285° |
| 2026-04-21 08:52 | 32.76258 | -117.30945 | 2949 ft | 239 kts | 286° |
| 2026-04-21 08:52 | 32.76535 | -117.32895 | 3595 ft | 241 kts | 262° |
| 2026-04-21 08:52 | 32.75867 | -117.34679 | 4196 ft | 242 kts | 225° |
| 2026-04-21 08:53 | 32.74389 | -117.35610 | 4825 ft | 247 kts | 188° |
| 2026-04-21 08:53 | 32.72702 | -117.35278 | 5418 ft | 253 kts | 152° |
| 2026-04-21 08:53 | 32.71277 | -117.34022 | 6054 ft | 257 kts | 139° |
| 2026-04-21 08:53 | 32.70003 | -117.32518 | 6706 ft | 259 kts | 136° |
| 2026-04-21 08:54 | 32.68761 | -117.30968 | 7320 ft | 260 kts | 137° |
| 2026-04-21 08:54 | 32.67495 | -117.29436 | 7938 ft | 261 kts | 138° |
| 2026-04-21 08:54 | 32.66197 | -117.27937 | 8535 ft | 261 kts | 140° |
| 2026-04-21 08:54 | 32.65316 | -117.26954 | 8967 ft | 262 kts | 140° |
| 2026-04-21 08:55 | 32.64060 | -117.25372 | 9567 ft | 267 kts | 128° |
| 2026-04-21 08:55 | 32.63190 | -117.23399 | 10085 ft | 277 kts | 112° |
| 2026-04-21 08:55 | 32.62793 | -117.21024 | 10202 ft | 302 kts | 99° |
| 2026-04-21 08:55 | 32.62573 | -117.18512 | 10333 ft | 321 kts | 99° |
| 2026-04-21 08:56 | 32.62328 | -117.15763 | 10472 ft | 338 kts | 98° |
| 2026-04-21 08:56 | 32.62085 | -117.12990 | 10873 ft | 346 kts | 97° |
| 2026-04-21 08:56 | 32.62181 | -117.10120 | 11407 ft | 352 kts | 82° |
| 2026-04-21 08:56 | 32.62872 | -117.07310 | 11958 ft | 358 kts | 70° |
| 2026-04-21 08:57 | 32.63783 | -117.04549 | 12518 ft | 361 kts | 70° |
| 2026-04-21 08:57 | 32.64699 | -117.01766 | 13083 ft | 363 kts | 71° |
| 2026-04-21 08:57 | 32.65617 | -116.98968 | 13633 ft | 366 kts | 71° |
| 2026-04-21 08:57 | 32.66395 | -116.96084 | 14149 ft | 367 kts | 80° |
| 2026-04-21 08:58 | 32.66706 | -116.93086 | 14619 ft | 367 kts | 91° |
| 2026-04-21 08:58 | 32.66766 | -116.90048 | 15090 ft | 370 kts | 91° |
| 2026-04-21 08:58 | 32.66833 | -116.86986 | 15555 ft | 373 kts | 91° |
| 2026-04-21 08:58 | 32.66905 | -116.83897 | 16040 ft | 376 kts | 91° |
| 2026-04-21 08:59 | 32.66979 | -116.80776 | 16512 ft | 379 kts | 91° |
| 2026-04-21 08:59 | 32.67054 | -116.77636 | 16977 ft | 383 kts | 91° |
| 2026-04-21 08:59 | 32.67126 | -116.74470 | 17434 ft | 385 kts | 92° |
| 2026-04-21 08:59 | 32.67134 | -116.71281 | 17880 ft | 388 kts | 94° |
| 2026-04-21 09:00 | 32.67086 | -116.68070 | 18327 ft | 391 kts | 95° |
| 2026-04-21 09:00 | 32.67010 | -116.64822 | 18716 ft | 394 kts | 95° |
| 2026-04-21 09:00 | 32.66930 | -116.61558 | 19115 ft | 397 kts | 94° |
| 2026-04-21 09:00 | 32.66855 | -116.58267 | 19498 ft | 400 kts | 94° |
| 2026-04-21 09:01 | 32.66788 | -116.54960 | 19870 ft | 402 kts | 94° |
| 2026-04-21 09:01 | 32.66727 | -116.51641 | 20303 ft | 403 kts | 94° |
| 2026-04-21 09:01 | 32.66671 | -116.48308 | 20693 ft | 405 kts | 94° |
| 2026-04-21 09:01 | 32.66614 | -116.44957 | 21081 ft | 407 kts | 94° |
| 2026-04-21 09:02 | 32.66657 | -116.41582 | 21448 ft | 412 kts | 87° |
| 2026-04-21 09:02 | 32.66969 | -116.38195 | 21824 ft | 414 kts | 86° |
| 2026-04-21 09:02 | 32.67286 | -116.34786 | 22169 ft | 417 kts | 86° |
| 2026-04-21 09:03 | 32.67917 | -116.27912 | 22917 ft | 421 kts | 87° |
| 2026-04-21 09:03 | 32.68228 | -116.24454 | 23257 ft | 422 kts | 87° |
| 2026-04-21 09:03 | 32.68538 | -116.20997 | 23738 ft | 421 kts | 87° |
| 2026-04-21 09:03 | 32.68843 | -116.17585 | 24058 ft | 422 kts | 87° |
| 2026-04-21 09:04 | 32.69151 | -116.14108 | 24342 ft | 424 kts | 87° |
| 2026-04-21 09:04 | 32.69459 | -116.10628 | 24577 ft | 426 kts | 87° |
| 2026-04-21 09:04 | 32.69768 | -116.07116 | 24865 ft | 429 kts | 87° |
| 2026-04-21 09:04 | 32.70081 | -116.03584 | 25120 ft | 431 kts | 86° |
| 2026-04-21 09:05 | 32.70398 | -116.00042 | 25357 ft | 433 kts | 86° |
| 2026-04-21 09:05 | 32.70727 | -115.96480 | 25606 ft | 435 kts | 86° |
| 2026-04-21 09:05 | 32.71065 | -115.92896 | 25847 ft | 438 kts | 86° |
| 2026-04-21 09:05 | 32.71406 | -115.89283 | 26091 ft | 441 kts | 86° |
| 2026-04-21 09:06 | 32.71742 | -115.85658 | 26334 ft | 443 kts | 86° |
| 2026-04-21 09:06 | 32.72077 | -115.82014 | 26579 ft | 445 kts | 86° |
| 2026-04-21 09:06 | 32.72411 | -115.78355 | 26825 ft | 447 kts | 86° |
| 2026-04-21 09:06 | 32.72747 | -115.74673 | 27063 ft | 449 kts | 86° |
| 2026-04-21 09:07 | 32.73084 | -115.70974 | 27304 ft | 452 kts | 86° |
| 2026-04-21 09:07 | 32.73421 | -115.67258 | 27540 ft | 453 kts | 85° |
| 2026-04-21 09:07 | 32.73757 | -115.63532 | 27779 ft | 455 kts | 86° |
| 2026-04-21 09:07 | 32.74095 | -115.59779 | 27982 ft | 458 kts | 86° |
| 2026-04-21 09:08 | 32.74430 | -115.56020 | 28204 ft | 460 kts | 86° |
| 2026-04-21 09:08 | 32.74766 | -115.52234 | 28437 ft | 462 kts | 86° |
| 2026-04-21 09:08 | 32.75050 | -115.48425 | 28654 ft | 463 kts | 88° |
| 2026-04-21 09:08 | 32.75217 | -115.44594 | 28870 ft | 465 kts | 90° |
| 2026-04-21 09:09 | 32.75295 | -115.40802 | 29074 ft | 466 kts | 91° |
| 2026-04-21 09:09 | 32.75332 | -115.36900 | 29285 ft | 468 kts | 91° |
| 2026-04-21 09:09 | 32.75360 | -115.33027 | 29489 ft | 470 kts | 91° |
| 2026-04-21 09:09 | 32.75407 | -115.29132 | 29735 ft | 471 kts | 91° |
| 2026-04-21 09:10 | 32.75473 | -115.25233 | 29935 ft | 473 kts | 90° |
| 2026-04-21 09:10 | 32.75556 | -115.21322 | 30114 ft | 475 kts | 90° |
| 2026-04-21 09:10 | 32.75649 | -115.17450 | 30284 ft | 476 kts | 90° |
| 2026-04-21 09:10 | 32.75746 | -115.13522 | 30469 ft | 477 kts | 90° |
| 2026-04-21 09:11 | 32.75841 | -115.09578 | 30659 ft | 478 kts | 90° |
| 2026-04-21 09:11 | 32.75931 | -115.05631 | 30903 ft | 477 kts | 90° |
| 2026-04-21 09:11 | 32.76016 | -115.01697 | 31169 ft | 476 kts | 90° |
| 2026-04-21 09:11 | 32.76098 | -114.97755 | 31359 ft | 477 kts | 90° |
| 2026-04-21 09:12 | 32.76178 | -114.93820 | 31608 ft | 477 kts | 90° |
| 2026-04-21 09:12 | 32.76258 | -114.89885 | 31878 ft | 476 kts | 90° |
| 2026-04-21 09:12 | 32.76337 | -114.85965 | 32158 ft | 475 kts | 90° |
| 2026-04-21 09:12 | 32.76414 | -114.82043 | 32440 ft | 474 kts | 90° |
| 2026-04-21 09:13 | 32.76492 | -114.78140 | 32725 ft | 472 kts | 90° |
| 2026-04-21 09:13 | 32.76567 | -114.74242 | 32914 ft | 472 kts | 91° |
| 2026-04-21 09:13 | 32.76710 | -114.66575 | 32958 ft | 458 kts | 91° |
| 2026-04-21 09:14 | 32.76845 | -114.59028 | 32960 ft | 456 kts | 91° |
| 2026-04-21 09:14 | 32.76953 | -114.51494 | 32957 ft | 456 kts | 91° |
| 2026-04-21 09:15 | 32.77047 | -114.43967 | 32960 ft | 456 kts | 91° |
| 2026-04-21 09:15 | 32.77144 | -114.36438 | 32936 ft | 456 kts | 91° |
| 2026-04-21 09:16 | 32.77235 | -114.28911 | 32938 ft | 455 kts | 91° |
| 2026-04-21 09:16 | 32.77329 | -114.21392 | 32941 ft | 455 kts | 91° |
| 2026-04-21 09:17 | 32.77414 | -114.13867 | 32945 ft | 455 kts | 91° |
| 2026-04-21 09:17 | 32.77495 | -114.06351 | 32938 ft | 455 kts | 91° |
| 2026-04-21 09:18 | 32.77580 | -113.98847 | 32949 ft | 454 kts | 90° |
| 2026-04-21 09:18 | 32.78433 | -113.91389 | 32950 ft | 456 kts | 82° |
| 2026-04-21 09:19 | 32.79510 | -113.83951 | 32945 ft | 456 kts | 82° |
| 2026-04-21 09:19 | 32.80569 | -113.76526 | 32944 ft | 456 kts | 82° |
| 2026-04-21 09:20 | 32.81617 | -113.69100 | 32943 ft | 455 kts | 82° |
| 2026-04-21 09:20 | 32.82663 | -113.61679 | 32947 ft | 455 kts | 82° |
| 2026-04-21 09:21 | 32.83702 | -113.54311 | 32948 ft | 454 kts | 82° |
| 2026-04-21 09:21 | 32.84747 | -113.46894 | 32948 ft | 454 kts | 82° |
| 2026-04-21 09:22 | 32.85787 | -113.39491 | 32942 ft | 454 kts | 83° |
| 2026-04-21 09:22 | 32.86817 | -113.32087 | 32949 ft | 453 kts | 83° |
| 2026-04-21 09:23 | 32.87841 | -113.24687 | 32952 ft | 453 kts | 83° |
| 2026-04-21 09:23 | 32.88856 | -113.17296 | 32951 ft | 453 kts | 83° |
| 2026-04-21 09:24 | 32.89878 | -113.09894 | 32951 ft | 453 kts | 83° |
| 2026-04-21 09:24 | 32.90893 | -113.02508 | 32971 ft | 452 kts | 83° |
| 2026-04-21 09:25 | 32.91901 | -112.95111 | 32987 ft | 452 kts | 83° |
| 2026-04-21 09:25 | 32.92902 | -112.87729 | 33000 ft | 452 kts | 83° |
| 2026-04-21 09:26 | 32.93895 | -112.80340 | 33013 ft | 452 kts | 83° |
| 2026-04-21 09:26 | 32.94887 | -112.72942 | 33002 ft | 452 kts | 83° |
| 2026-04-21 09:27 | 32.95167 | -112.65531 | 32999 ft | 447 kts | 99° |
| 2026-04-21 09:27 | 32.93932 | -112.58361 | 32991 ft | 444 kts | 105° |
| 2026-04-21 09:28 | 32.92577 | -112.51172 | 32984 ft | 445 kts | 105° |
| 2026-04-21 09:28 | 32.91235 | -112.43990 | 32947 ft | 445 kts | 105° |
| 2026-04-21 09:29 | 32.89877 | -112.36787 | 32950 ft | 446 kts | 105° |
| 2026-04-21 09:29 | 32.88512 | -112.29597 | 32957 ft | 446 kts | 105° |
| 2026-04-21 09:30 | 32.87134 | -112.22401 | 32962 ft | 446 kts | 105° |
| 2026-04-21 09:30 | 32.85762 | -112.15208 | 32976 ft | 446 kts | 105° |
| 2026-04-21 09:31 | 32.84396 | -112.08013 | 32978 ft | 446 kts | 105° |
| 2026-04-21 09:31 | 32.83019 | -112.00810 | 32987 ft | 447 kts | 105° |
| 2026-04-21 09:32 | 32.81634 | -111.93603 | 32999 ft | 447 kts | 105° |
| 2026-04-21 09:32 | 32.80239 | -111.86398 | 33011 ft | 447 kts | 105° |
| 2026-04-21 09:33 | 32.78848 | -111.79235 | 33014 ft | 447 kts | 105° |
| 2026-04-21 09:33 | 32.77447 | -111.72023 | 32992 ft | 448 kts | 105° |
| 2026-04-21 09:34 | 32.76042 | -111.64810 | 32990 ft | 448 kts | 105° |
| 2026-04-21 09:34 | 32.74633 | -111.57605 | 32985 ft | 449 kts | 105° |
| 2026-04-21 09:35 | 32.73212 | -111.50375 | 33018 ft | 449 kts | 105° |
| 2026-04-21 09:35 | 32.71788 | -111.43163 | 33018 ft | 449 kts | 105° |
| 2026-04-21 09:36 | 32.70360 | -111.35940 | 33048 ft | 449 kts | 105° |
| 2026-04-21 09:36 | 32.68933 | -111.28721 | 33050 ft | 449 kts | 105° |
| 2026-04-21 09:37 | 32.67505 | -111.21510 | 33053 ft | 449 kts | 105° |
| 2026-04-21 09:37 | 32.66064 | -111.14308 | 33056 ft | 449 kts | 106° |
| 2026-04-21 09:38 | 32.64611 | -111.07099 | 33035 ft | 449 kts | 106° |
| 2026-04-21 09:38 | 32.63412 | -111.01116 | 33033 ft | 450 kts | 105° |
| 2026-04-21 09:39 | 32.61962 | -110.93887 | 33048 ft | 450 kts | 105° |
| 2026-04-21 09:39 | 32.60501 | -110.86668 | 33061 ft | 450 kts | 106° |
| 2026-04-21 09:40 | 32.59038 | -110.79443 | 33038 ft | 451 kts | 106° |
| 2026-04-21 09:40 | 32.57570 | -110.72209 | 33040 ft | 451 kts | 106° |
| 2026-04-21 09:41 | 32.56101 | -110.64976 | 33053 ft | 451 kts | 106° |
| 2026-04-21 09:41 | 32.54619 | -110.57748 | 33048 ft | 451 kts | 106° |
| 2026-04-21 09:42 | 32.53129 | -110.50522 | 33060 ft | 452 kts | 106° |
| 2026-04-21 09:42 | 32.51636 | -110.43285 | 33040 ft | 452 kts | 106° |
| 2026-04-21 09:43 | 32.50146 | -110.36038 | 33038 ft | 453 kts | 106° |
| 2026-04-21 09:43 | 32.48649 | -110.28792 | 33026 ft | 454 kts | 106° |
| 2026-04-21 09:44 | 32.47135 | -110.21519 | 33024 ft | 455 kts | 106° |
| 2026-04-21 09:44 | 32.45619 | -110.14238 | 33005 ft | 456 kts | 106° |
| 2026-04-21 09:45 | 32.44097 | -110.06957 | 33005 ft | 456 kts | 106° |
| 2026-04-21 09:45 | 32.42573 | -109.99671 | 32985 ft | 456 kts | 106° |
| 2026-04-21 09:46 | 32.41035 | -109.92374 | 32971 ft | 457 kts | 106° |
| 2026-04-21 09:46 | 32.39493 | -109.85079 | 32981 ft | 457 kts | 106° |
| 2026-04-21 09:47 | 32.37957 | -109.77825 | 32959 ft | 457 kts | 106° |
| 2026-04-21 09:47 | 32.36415 | -109.70531 | 32950 ft | 457 kts | 107° |
| 2026-04-21 09:48 | 32.34864 | -109.63222 | 32931 ft | 459 kts | 107° |
| 2026-04-21 09:48 | 32.33294 | -109.55887 | 32937 ft | 461 kts | 107° |
| 2026-04-21 09:49 | 32.31716 | -109.48534 | 32936 ft | 462 kts | 107° |
| 2026-04-21 09:49 | 32.30126 | -109.41174 | 32945 ft | 462 kts | 107° |
| 2026-04-21 09:50 | 32.28804 | -109.35053 | 32946 ft | 462 kts | 107° |
| 2026-04-21 09:50 | 32.26953 | -109.26444 | 32956 ft | 462 kts | 106° |
| 2026-04-21 09:51 | 32.25687 | -109.18988 | 32960 ft | 464 kts | 101° |
| 2026-04-21 09:51 | 32.24756 | -109.11443 | 32963 ft | 464 kts | 99° |
| 2026-04-21 09:52 | 32.23809 | -109.03898 | 32960 ft | 464 kts | 101° |
| 2026-04-21 09:52 | 32.22756 | -108.96376 | 32971 ft | 464 kts | 102° |
| 2026-04-21 09:53 | 32.21650 | -108.88860 | 32949 ft | 466 kts | 102° |
| 2026-04-21 09:53 | 32.20544 | -108.81305 | 32955 ft | 467 kts | 102° |
| 2026-04-21 09:54 | 32.19463 | -108.73772 | 33103 ft | 469 kts | 102° |
| 2026-04-21 09:54 | 32.18376 | -108.66174 | 33102 ft | 470 kts | 102° |
| 2026-04-21 09:55 | 32.17284 | -108.58616 | 33083 ft | 470 kts | 102° |
| 2026-04-21 09:55 | 32.16172 | -108.51010 | 33061 ft | 470 kts | 102° |
| 2026-04-21 09:56 | 32.15059 | -108.43409 | 33039 ft | 470 kts | 102° |
| 2026-04-21 09:56 | 32.13620 | -108.35903 | 33007 ft | 471 kts | 117° |
| 2026-04-21 09:57 | 32.11915 | -108.32621 | 32998 ft | 467 kts | 135° |
| 2026-04-21 09:57 | 32.09527 | -108.30070 | 32998 ft | 462 kts | 152° |
| 2026-04-21 09:57 | 32.06668 | -108.28447 | 32997 ft | 454 kts | 168° |
| 2026-04-21 09:57 | 32.03593 | -108.27876 | 32997 ft | 444 kts | 185° |
| 2026-04-21 09:58 | 32.00583 | -108.28386 | 33000 ft | 434 kts | 202° |
| 2026-04-21 09:58 | 31.97899 | -108.29906 | 32999 ft | 426 kts | 219° |
| 2026-04-21 09:58 | 31.95773 | -108.32283 | 32999 ft | 421 kts | 236° |
| 2026-04-21 09:58 | 31.94392 | -108.35297 | 33000 ft | 418 kts | 253° |
| 2026-04-21 09:59 | 31.93884 | -108.38653 | 32997 ft | 418 kts | 270° |
| 2026-04-21 09:59 | 31.94247 | -108.42052 | 32995 ft | 420 kts | 281° |
| 2026-04-21 09:59 | 31.95520 | -108.48775 | 32978 ft | 421 kts | 279° |
| 2026-04-21 10:00 | 31.96671 | -108.55552 | 32978 ft | 423 kts | 279° |
| 2026-04-21 10:00 | 31.97831 | -108.62350 | 32976 ft | 423 kts | 279° |
| 2026-04-21 10:01 | 31.98277 | -108.69175 | 32980 ft | 418 kts | 257° |
| 2026-04-21 10:01 | 31.97303 | -108.72374 | 32967 ft | 417 kts | 244° |
| 2026-04-21 10:01 | 31.95954 | -108.75397 | 32967 ft | 417 kts | 242° |
| 2026-04-21 10:02 | 31.92313 | -108.80661 | 32965 ft | 422 kts | 215° |
| 2026-04-21 10:02 | 31.89649 | -108.82113 | 32963 ft | 428 kts | 198° |
| 2026-04-21 10:03 | 31.83776 | -108.83304 | 32963 ft | 433 kts | 192° |
| 2026-04-21 10:03 | 31.77766 | -108.84331 | 32970 ft | 434 kts | 192° |
| 2026-04-21 10:04 | 31.71822 | -108.85341 | 32958 ft | 435 kts | 192° |
| 2026-04-21 10:04 | 31.65824 | -108.86344 | 32972 ft | 435 kts | 192° |
| 2026-04-21 10:05 | 31.59829 | -108.87341 | 32987 ft | 435 kts | 192° |
| 2026-04-21 10:05 | 31.53838 | -108.88335 | 32994 ft | 435 kts | 192° |
| 2026-04-21 10:06 | 31.47833 | -108.89243 | 32996 ft | 438 kts | 184° |
| 2026-04-21 10:06 | 31.44784 | -108.88803 | 32980 ft | 447 kts | 168° |
| 2026-04-21 10:06 | 31.41919 | -108.87307 | 32986 ft | 457 kts | 151° |
| 2026-04-21 10:06 | 31.39498 | -108.84870 | 32984 ft | 466 kts | 134° |
| 2026-04-21 10:07 | 31.37720 | -108.81667 | 32983 ft | 475 kts | 117° |
| 2026-04-21 10:07 | 31.36753 | -108.77956 | 32980 ft | 481 kts | 100° |
| 2026-04-21 10:07 | 31.36623 | -108.74034 | 32983 ft | 485 kts | 90° |
| 2026-04-21 10:08 | 31.36350 | -108.66139 | 32983 ft | 487 kts | 97° |
| 2026-04-21 10:08 | 31.35537 | -108.58278 | 32986 ft | 487 kts | 102° |
| 2026-04-21 10:09 | 31.34443 | -108.50438 | 32999 ft | 489 kts | 102° |
| 2026-04-21 10:09 | 31.33446 | -108.42572 | 33003 ft | 492 kts | 93° |
| 2026-04-21 10:09 | 31.33759 | -108.38598 | 32998 ft | 493 kts | 76° |
| 2026-04-21 10:10 | 31.34968 | -108.34864 | 32997 ft | 491 kts | 59° |
| 2026-04-21 10:10 | 31.36972 | -108.31672 | 32997 ft | 486 kts | 41° |
| 2026-04-21 10:10 | 31.39597 | -108.29272 | 33014 ft | 471 kts | 24° |
| 2026-04-21 10:10 | 31.42523 | -108.27803 | 33020 ft | 448 kts | 14° |
| 2026-04-21 10:11 | 31.45421 | -108.26680 | 33022 ft | 431 kts | 13° |
| 2026-04-21 10:11 | 31.48250 | -108.25770 | 33014 ft | 408 kts | 1° |
| 2026-04-21 10:11 | 31.50967 | -108.25782 | 33013 ft | 378 kts | 341° |
| 2026-04-21 10:11 | 31.53376 | -108.26809 | 33024 ft | 364 kts | 321° |
| 2026-04-21 10:12 | 31.55246 | -108.28696 | 33038 ft | 352 kts | 301° |
| 2026-04-21 10:12 | 31.56378 | -108.31180 | 33021 ft | 343 kts | 284° |
| 2026-04-21 10:12 | 31.57073 | -108.33866 | 33020 ft | 344 kts | 282° |
| 2026-04-21 10:13 | 31.58330 | -108.39292 | 33019 ft | 345 kts | 282° |
| 2026-04-21 10:13 | 31.59580 | -108.44731 | 33003 ft | 346 kts | 282° |
| 2026-04-21 10:14 | 31.60857 | -108.50175 | 32997 ft | 346 kts | 282° |
| 2026-04-21 10:14 | 31.62137 | -108.55625 | 32996 ft | 347 kts | 282° |
| 2026-04-21 10:15 | 31.63715 | -108.60922 | 32978 ft | 353 kts | 301° |
| 2026-04-21 10:15 | 31.65432 | -108.63010 | 32978 ft | 362 kts | 321° |
| 2026-04-21 10:15 | 31.67736 | -108.64282 | 32970 ft | 374 kts | 341° |
| 2026-04-21 10:15 | 31.70355 | -108.64550 | 32965 ft | 385 kts | 2° |
| 2026-04-21 10:16 | 31.72978 | -108.63747 | 32965 ft | 396 kts | 22° |
| 2026-04-21 10:16 | 31.75199 | -108.61802 | 32852 ft | 409 kts | 51° |
| 2026-04-21 10:16 | 31.76495 | -108.58835 | 32681 ft | 412 kts | 81° |
| 2026-04-21 10:16 | 31.76546 | -108.55520 | 32643 ft | 407 kts | 104° |
| 2026-04-21 10:17 | 31.75883 | -108.52324 | 32916 ft | 402 kts | 106° |
| 2026-04-21 10:17 | 31.74729 | -108.45793 | 32898 ft | 414 kts | 104° |
| 2026-04-21 10:18 | 31.73593 | -108.39068 | 32903 ft | 424 kts | 103° |
| 2026-04-21 10:18 | 31.72407 | -108.32193 | 32906 ft | 435 kts | 104° |
| 2026-04-21 10:19 | 31.71184 | -108.25137 | 32915 ft | 447 kts | 104° |
| 2026-04-21 10:19 | 31.69803 | -108.17945 | 32917 ft | 457 kts | 107° |
| 2026-04-21 10:19 | 31.68820 | -108.14379 | 32907 ft | 458 kts | 120° |
| 2026-04-21 10:20 | 31.67079 | -108.11278 | 32912 ft | 453 kts | 138° |
| 2026-04-21 10:20 | 31.64689 | -108.08938 | 32917 ft | 447 kts | 155° |
| 2026-04-21 10:20 | 31.61856 | -108.07539 | 32923 ft | 439 kts | 173° |
| 2026-04-21 10:21 | 31.55839 | -108.07157 | 32916 ft | 439 kts | 186° |
| 2026-04-21 10:21 | 31.49766 | -108.07728 | 32918 ft | 438 kts | 191° |
| 2026-04-21 10:22 | 31.44685 | -108.08347 | 32917 ft | 438 kts | 191° |
| 2026-04-21 10:22 | 31.38657 | -108.09084 | 32923 ft | 438 kts | 191° |
| 2026-04-21 10:23 | 31.32597 | -108.09824 | 32923 ft | 438 kts | 191° |
| 2026-04-21 10:23 | 31.26541 | -108.10541 | 32916 ft | 436 kts | 191° |
| 2026-04-21 10:24 | 31.20588 | -108.11603 | 32904 ft | 426 kts | 206° |
| 2026-04-21 10:24 | 31.18043 | -108.13261 | 32912 ft | 416 kts | 223° |
| 2026-04-21 10:24 | 31.16114 | -108.15712 | 32912 ft | 410 kts | 239° |
| 2026-04-21 10:24 | 31.14961 | -108.18729 | 32912 ft | 409 kts | 256° |
| 2026-04-21 10:25 | 31.14697 | -108.22032 | 32910 ft | 411 kts | 273° |
| 2026-04-21 10:25 | 31.16100 | -108.28562 | 32917 ft | 417 kts | 284° |
| 2026-04-21 10:26 | 31.17559 | -108.35101 | 32912 ft | 416 kts | 278° |
| 2026-04-21 10:26 | 31.18519 | -108.41752 | 32911 ft | 415 kts | 276° |
| 2026-04-21 10:27 | 31.19346 | -108.48437 | 32906 ft | 417 kts | 275° |
| 2026-04-21 10:27 | 31.20118 | -108.55155 | 32906 ft | 417 kts | 275° |
| 2026-04-21 10:28 | 31.20893 | -108.61871 | 32899 ft | 417 kts | 275° |
| 2026-04-21 10:28 | 31.21670 | -108.68595 | 32899 ft | 417 kts | 275° |
| 2026-04-21 10:29 | 31.22442 | -108.75317 | 32901 ft | 418 kts | 275° |
| 2026-04-21 10:29 | 31.23218 | -108.82078 | 32891 ft | 422 kts | 275° |
| 2026-04-21 10:30 | 31.24013 | -108.88882 | 32884 ft | 423 kts | 275° |
| 2026-04-21 10:30 | 31.24810 | -108.95688 | 32882 ft | 422 kts | 275° |
| 2026-04-21 10:31 | 31.25606 | -109.02449 | 32892 ft | 422 kts | 275° |
| 2026-04-21 10:31 | 31.26410 | -109.09247 | 32891 ft | 423 kts | 275° |
| 2026-04-21 10:31 | 31.26972 | -109.12664 | 32875 ft | 426 kts | 286° |
| 2026-04-21 10:32 | 31.28299 | -109.15743 | 32875 ft | 436 kts | 303° |
| 2026-04-21 10:32 | 31.30421 | -109.18307 | 32876 ft | 446 kts | 319° |
| 2026-04-21 10:32 | 31.33162 | -109.20075 | 32876 ft | 457 kts | 336° |
| 2026-04-21 10:32 | 31.36291 | -109.20872 | 32875 ft | 467 kts | 353° |
| 2026-04-21 10:33 | 31.39564 | -109.20825 | 32887 ft | 473 kts | 1° |
| 2026-04-21 10:33 | 31.46086 | -109.19491 | 32900 ft | 477 kts | 8° |
| 2026-04-21 10:34 | 31.52591 | -109.17931 | 32891 ft | 477 kts | 8° |
| 2026-04-21 10:34 | 31.59105 | -109.16362 | 32885 ft | 477 kts | 8° |
| 2026-04-21 10:35 | 31.65599 | -109.14795 | 32885 ft | 477 kts | 8° |
| 2026-04-21 10:35 | 31.72104 | -109.13218 | 32895 ft | 475 kts | 8° |
| 2026-04-21 10:36 | 31.78575 | -109.11634 | 32891 ft | 474 kts | 8° |
| 2026-04-21 10:36 | 31.85023 | -109.10031 | 32889 ft | 474 kts | 8° |
| 2026-04-21 10:37 | 31.91464 | -109.08424 | 32883 ft | 473 kts | 8° |
| 2026-04-21 10:37 | 31.97915 | -109.06812 | 32883 ft | 473 kts | 8° |
| 2026-04-21 10:38 | 32.04290 | -109.04865 | 32865 ft | 479 kts | 23° |
| 2026-04-21 10:38 | 32.07112 | -109.02752 | 32866 ft | 484 kts | 40° |
| 2026-04-21 10:38 | 32.09356 | -108.99796 | 32866 ft | 487 kts | 56° |
| 2026-04-21 10:38 | 32.10849 | -108.96218 | 32871 ft | 488 kts | 73° |
| 2026-04-21 10:39 | 32.11468 | -108.92305 | 32873 ft | 486 kts | 90° |
| 2026-04-21 10:39 | 32.11282 | -108.88386 | 32872 ft | 474 kts | 99° |
| 2026-04-21 10:39 | 32.10888 | -108.84542 | 32876 ft | 470 kts | 99° |
| 2026-04-21 10:40 | 32.10091 | -108.76902 | 32874 ft | 469 kts | 99° |
| 2026-04-21 10:40 | 32.09288 | -108.69265 | 32950 ft | 469 kts | 99° |
| 2026-04-21 10:41 | 32.08478 | -108.61633 | 32942 ft | 469 kts | 99° |
| 2026-04-21 10:41 | 32.07663 | -108.53994 | 32927 ft | 469 kts | 99° |
| 2026-04-21 10:42 | 32.06852 | -108.46369 | 32903 ft | 469 kts | 99° |
| 2026-04-21 10:42 | 32.06042 | -108.38784 | 32889 ft | 470 kts | 99° |
| 2026-04-21 10:43 | 32.05213 | -108.31152 | 32889 ft | 470 kts | 99° |
| 2026-04-21 10:43 | 32.04381 | -108.23511 | 32889 ft | 470 kts | 99° |
| 2026-04-21 10:44 | 32.03552 | -108.15879 | 32891 ft | 470 kts | 99° |
| 2026-04-21 10:44 | 32.02715 | -108.08237 | 32890 ft | 470 kts | 99° |
| 2026-04-21 10:45 | 32.01869 | -108.00555 | 32890 ft | 470 kts | 99° |
| 2026-04-21 10:45 | 32.01028 | -107.92977 | 32890 ft | 470 kts | 99° |
| 2026-04-21 10:46 | 32.00173 | -107.85352 | 32893 ft | 470 kts | 99° |
| 2026-04-21 10:46 | 31.99315 | -107.77728 | 32944 ft | 470 kts | 99° |
| 2026-04-21 10:47 | 31.98452 | -107.70047 | 32944 ft | 471 kts | 98° |
| 2026-04-21 10:47 | 31.97593 | -107.62447 | 32933 ft | 471 kts | 99° |
| 2026-04-21 10:48 | 31.96721 | -107.54800 | 32909 ft | 471 kts | 99° |
| 2026-04-21 10:48 | 31.95842 | -107.47142 | 32890 ft | 471 kts | 99° |
| 2026-04-21 10:49 | 31.94958 | -107.39492 | 32888 ft | 471 kts | 99° |
| 2026-04-21 10:49 | 31.94071 | -107.31801 | 32872 ft | 476 kts | 99° |
| 2026-04-21 10:50 | 31.93174 | -107.24060 | 32873 ft | 477 kts | 99° |
| 2026-04-21 10:50 | 31.92266 | -107.16323 | 32869 ft | 477 kts | 99° |
| 2026-04-21 10:51 | 31.91354 | -107.08580 | 32873 ft | 477 kts | 99° |
| 2026-04-21 10:51 | 31.90433 | -107.00836 | 32878 ft | 479 kts | 99° |
| 2026-04-21 10:52 | 31.89501 | -106.93041 | 32877 ft | 481 kts | 99° |
| 2026-04-21 10:52 | 31.88567 | -106.85243 | 33023 ft | 481 kts | 99° |
| 2026-04-21 10:53 | 31.87636 | -106.77513 | 33047 ft | 481 kts | 99° |
| 2026-04-21 10:53 | 31.86693 | -106.69715 | 33054 ft | 481 kts | 99° |
| 2026-04-21 10:54 | 31.85741 | -106.61894 | 33054 ft | 484 kts | 99° |
| 2026-04-21 10:54 | 31.84784 | -106.54050 | 33016 ft | 484 kts | 99° |
| 2026-04-21 10:55 | 31.83829 | -106.46202 | 33044 ft | 484 kts | 99° |
| 2026-04-21 10:55 | 31.82864 | -106.38365 | 33046 ft | 484 kts | 99° |
| 2026-04-21 10:56 | 31.81888 | -106.30520 | 33028 ft | 487 kts | 99° |
| 2026-04-21 10:56 | 31.80914 | -106.22623 | 33008 ft | 488 kts | 98° |
| 2026-04-21 10:57 | 31.79988 | -106.14717 | 32972 ft | 488 kts | 98° |
| 2026-04-21 10:57 | 31.79072 | -106.06805 | 32933 ft | 488 kts | 98° |
| 2026-04-21 10:58 | 31.78139 | -105.98899 | 32917 ft | 489 kts | 98° |
| 2026-04-21 10:58 | 31.77185 | -105.90953 | 32916 ft | 492 kts | 98° |
| 2026-04-21 10:59 | 31.76219 | -105.82990 | 32915 ft | 493 kts | 98° |
| 2026-04-21 10:59 | 31.75252 | -105.75005 | 32926 ft | 493 kts | 98° |
| 2026-04-21 11:00 | 31.74292 | -105.67093 | 32923 ft | 492 kts | 99° |
| 2026-04-21 11:00 | 31.73316 | -105.59109 | 32950 ft | 495 kts | 98° |
| 2026-04-21 11:01 | 31.72325 | -105.51090 | 32950 ft | 496 kts | 99° |
| 2026-04-21 11:01 | 31.71334 | -105.43065 | 32955 ft | 496 kts | 98° |
| 2026-04-21 11:02 | 31.69847 | -105.31045 | 32964 ft | 496 kts | 99° |
| 2026-04-21 11:02 | 31.68840 | -105.23014 | 32949 ft | 498 kts | 99° |
| 2026-04-21 11:03 | 31.67821 | -105.14968 | 32956 ft | 499 kts | 99° |
| 2026-04-21 11:03 | 31.66804 | -105.06914 | 32961 ft | 499 kts | 99° |
| 2026-04-21 11:04 | 31.65782 | -104.98872 | 32964 ft | 498 kts | 99° |
| 2026-04-21 11:04 | 31.64765 | -104.90875 | 32966 ft | 498 kts | 99° |
| 2026-04-21 11:05 | 31.63742 | -104.82861 | 32966 ft | 496 kts | 99° |
| 2026-04-21 11:05 | 31.62702 | -104.74854 | 32970 ft | 496 kts | 99° |
| 2026-04-21 11:06 | 31.61826 | -104.68146 | 32969 ft | 496 kts | 99° |
| 2026-04-21 11:06 | 31.60789 | -104.60212 | 32976 ft | 496 kts | 99° |
| 2026-04-21 11:07 | 31.59739 | -104.52205 | 32972 ft | 496 kts | 99° |
| 2026-04-21 11:07 | 31.58687 | -104.44207 | 32979 ft | 496 kts | 99° |
| 2026-04-21 11:08 | 31.57627 | -104.36211 | 32981 ft | 496 kts | 99° |
| 2026-04-21 11:08 | 31.56562 | -104.28222 | 32986 ft | 496 kts | 99° |
| 2026-04-21 11:09 | 31.55493 | -104.20229 | 32998 ft | 496 kts | 99° |
| 2026-04-21 11:09 | 31.54418 | -104.12208 | 32970 ft | 499 kts | 100° |
| 2026-04-21 11:10 | 31.53339 | -104.04176 | 32968 ft | 499 kts | 99° |
| 2026-04-21 11:10 | 31.52255 | -103.96146 | 32969 ft | 499 kts | 100° |
| 2026-04-21 11:11 | 31.51158 | -103.88123 | 32968 ft | 499 kts | 100° |
| 2026-04-21 11:11 | 31.50053 | -103.80083 | 33004 ft | 501 kts | 100° |
| 2026-04-21 11:12 | 31.48948 | -103.72022 | 33027 ft | 501 kts | 100° |
| 2026-04-21 11:12 | 31.47836 | -103.63956 | 33045 ft | 501 kts | 100° |
| 2026-04-21 11:13 | 31.46721 | -103.55892 | 33066 ft | 502 kts | 99° |
| 2026-04-21 11:13 | 31.45896 | -103.47778 | 33070 ft | 502 kts | 95° |
| 2026-04-21 11:14 | 31.45301 | -103.39613 | 33058 ft | 504 kts | 95° |
| 2026-04-21 11:14 | 31.44661 | -103.31437 | 33043 ft | 504 kts | 96° |
| 2026-04-21 11:15 | 31.43913 | -103.23286 | 33013 ft | 504 kts | 96° |
| 2026-04-21 11:15 | 31.43139 | -103.15135 | 32989 ft | 504 kts | 96° |
| 2026-04-21 11:16 | 31.42381 | -103.06973 | 32991 ft | 505 kts | 96° |
| 2026-04-21 11:16 | 31.41635 | -102.98786 | 32997 ft | 506 kts | 96° |
| 2026-04-21 11:17 | 31.40883 | -102.90599 | 32974 ft | 506 kts | 96° |
| 2026-04-21 11:17 | 31.40121 | -102.82409 | 32974 ft | 506 kts | 96° |
| 2026-04-21 11:18 | 31.39360 | -102.74277 | 32995 ft | 507 kts | 96° |
| 2026-04-21 11:18 | 31.38576 | -102.66063 | 32991 ft | 508 kts | 97° |
| 2026-04-21 11:19 | 31.37785 | -102.57850 | 32995 ft | 508 kts | 96° |
| 2026-04-21 11:19 | 31.36999 | -102.49624 | 32995 ft | 508 kts | 96° |
| 2026-04-21 11:20 | 31.36206 | -102.41408 | 33000 ft | 508 kts | 97° |
| 2026-04-21 11:20 | 31.35406 | -102.33181 | 33018 ft | 510 kts | 96° |
| 2026-04-21 11:21 | 31.34597 | -102.24929 | 33023 ft | 510 kts | 97° |
| 2026-04-21 11:21 | 31.33787 | -102.16686 | 33021 ft | 510 kts | 97° |
| 2026-04-21 11:22 | 31.32969 | -102.08446 | 33023 ft | 510 kts | 97° |
| 2026-04-21 11:22 | 31.32150 | -102.00252 | 33041 ft | 512 kts | 97° |
| 2026-04-21 11:23 | 31.31307 | -101.91980 | 33042 ft | 512 kts | 97° |
| 2026-04-21 11:23 | 31.30461 | -101.83713 | 33045 ft | 512 kts | 97° |
| 2026-04-21 11:24 | 31.29621 | -101.75435 | 33042 ft | 512 kts | 97° |
| 2026-04-21 11:24 | 31.28780 | -101.67163 | 33069 ft | 512 kts | 96° |
| 2026-04-21 11:25 | 31.27930 | -101.58861 | 33067 ft | 514 kts | 97° |
| 2026-04-21 11:25 | 31.27065 | -101.50567 | 33038 ft | 513 kts | 97° |
| 2026-04-21 11:26 | 31.26196 | -101.42290 | 33040 ft | 513 kts | 97° |
| 2026-04-21 11:26 | 31.25325 | -101.34013 | 33042 ft | 513 kts | 97° |
| 2026-04-21 11:27 | 31.24447 | -101.25736 | 33052 ft | 514 kts | 97° |
| 2026-04-21 11:27 | 31.23564 | -101.17434 | 33052 ft | 515 kts | 97° |
| 2026-04-21 11:28 | 31.22671 | -101.09142 | 33054 ft | 515 kts | 97° |
| 2026-04-21 11:28 | 31.21778 | -101.00851 | 33054 ft | 515 kts | 97° |
| 2026-04-21 11:29 | 31.20879 | -100.92558 | 33057 ft | 515 kts | 97° |
| 2026-04-21 11:29 | 31.19968 | -100.84272 | 33061 ft | 514 kts | 97° |
| 2026-04-21 11:30 | 31.19054 | -100.75986 | 33064 ft | 514 kts | 97° |
| 2026-04-21 11:30 | 31.18152 | -100.67758 | 33072 ft | 514 kts | 97° |
| 2026-04-21 11:31 | 31.17236 | -100.59480 | 33076 ft | 514 kts | 97° |
| 2026-04-21 11:31 | 31.16303 | -100.51197 | 33076 ft | 515 kts | 97° |
| 2026-04-21 11:32 | 31.15367 | -100.42907 | 33072 ft | 514 kts | 97° |
| 2026-04-21 11:32 | 31.14431 | -100.34632 | 33068 ft | 515 kts | 97° |
| 2026-04-21 11:33 | 31.13489 | -100.26350 | 33055 ft | 514 kts | 97° |
| 2026-04-21 11:33 | 31.12539 | -100.18067 | 33063 ft | 515 kts | 97° |
| 2026-04-21 11:34 | 31.11587 | -100.09789 | 33019 ft | 514 kts | 98° |
| 2026-04-21 11:34 | 31.10635 | -100.01546 | 33018 ft | 512 kts | 98° |
| 2026-04-21 11:35 | 31.09681 | -99.93301 | 33012 ft | 512 kts | 98° |
| 2026-04-21 11:35 | 31.08710 | -99.85065 | 33012 ft | 512 kts | 98° |
| 2026-04-21 11:36 | 31.07740 | -99.76834 | 33019 ft | 513 kts | 98° |
| 2026-04-21 11:36 | 31.06771 | -99.68646 | 33018 ft | 513 kts | 98° |
| 2026-04-21 11:37 | 31.05788 | -99.60438 | 33020 ft | 513 kts | 98° |
| 2026-04-21 11:37 | 31.04805 | -99.52204 | 33023 ft | 512 kts | 98° |
| 2026-04-21 11:38 | 31.03812 | -99.43984 | 33007 ft | 512 kts | 98° |
| 2026-04-21 11:38 | 31.02821 | -99.35783 | 33043 ft | 511 kts | 98° |
| 2026-04-21 11:39 | 31.01823 | -99.27570 | 33042 ft | 511 kts | 98° |
| 2026-04-21 11:39 | 31.00818 | -99.19372 | 33038 ft | 511 kts | 98° |
| 2026-04-21 11:40 | 30.99809 | -99.11173 | 33029 ft | 511 kts | 98° |
| 2026-04-21 11:40 | 30.98791 | -99.02982 | 33023 ft | 510 kts | 98° |
| 2026-04-21 11:41 | 30.97770 | -98.94801 | 33014 ft | 510 kts | 98° |
| 2026-04-21 11:41 | 30.96744 | -98.86605 | 33016 ft | 510 kts | 98° |
| 2026-04-21 11:42 | 30.95693 | -98.78445 | 33019 ft | 510 kts | 99° |
| 2026-04-21 11:42 | 30.94555 | -98.70290 | 32980 ft | 509 kts | 100° |
| 2026-04-21 11:43 | 30.93399 | -98.62183 | 33023 ft | 506 kts | 100° |
| 2026-04-21 11:43 | 30.92263 | -98.54145 | 33019 ft | 506 kts | 100° |
| 2026-04-21 11:44 | 30.91128 | -98.46055 | 33014 ft | 506 kts | 100° |
| 2026-04-21 11:44 | 30.89988 | -98.37964 | 33013 ft | 506 kts | 100° |
| 2026-04-21 11:45 | 30.88848 | -98.29939 | 33028 ft | 506 kts | 100° |
| 2026-04-21 11:45 | 30.87701 | -98.21844 | 33030 ft | 506 kts | 100° |
| 2026-04-21 11:46 | 30.86542 | -98.13762 | 33032 ft | 506 kts | 100° |
| 2026-04-21 11:46 | 30.85379 | -98.05692 | 33027 ft | 506 kts | 100° |
| 2026-04-21 11:47 | 30.84212 | -97.97611 | 33021 ft | 506 kts | 100° |
| 2026-04-21 11:47 | 30.83043 | -97.89600 | 33028 ft | 505 kts | 101° |
| 2026-04-21 11:48 | 30.81863 | -97.81557 | 33039 ft | 504 kts | 101° |
| 2026-04-21 11:48 | 30.80683 | -97.73505 | 33046 ft | 504 kts | 101° |
| 2026-04-21 11:49 | 30.79487 | -97.65466 | 33049 ft | 504 kts | 101° |
| 2026-04-21 11:49 | 30.78288 | -97.57435 | 33057 ft | 504 kts | 101° |
| 2026-04-21 11:50 | 30.77085 | -97.49404 | 32799 ft | 503 kts | 101° |
| 2026-04-21 11:50 | 30.76682 | -97.46709 | 32628 ft | 503 kts | 101° |
| 2026-04-21 11:50 | 30.75887 | -97.41406 | 32291 ft | 502 kts | 101° |
| 2026-04-21 11:51 | 30.75481 | -97.38704 | 32130 ft | 502 kts | 101° |
| 2026-04-21 11:51 | 30.74878 | -97.34700 | 31861 ft | 502 kts | 101° |
| 2026-04-21 11:51 | 30.74274 | -97.30721 | 31305 ft | 501 kts | 101° |
| 2026-04-21 11:51 | 30.73667 | -97.26732 | 30683 ft | 501 kts | 102° |
| 2026-04-21 11:52 | 30.73063 | -97.22746 | 29993 ft | 502 kts | 102° |
| 2026-04-21 11:52 | 30.72459 | -97.18757 | 29330 ft | 500 kts | 102° |
| 2026-04-21 11:52 | 30.71854 | -97.14783 | 28688 ft | 498 kts | 102° |
| 2026-04-21 11:52 | 30.71247 | -97.10825 | 28054 ft | 496 kts | 102° |
| 2026-04-21 11:53 | 30.70643 | -97.06894 | 27461 ft | 493 kts | 102° |
| 2026-04-21 11:53 | 30.70044 | -97.02982 | 26919 ft | 489 kts | 102° |
| 2026-04-21 11:53 | 30.69452 | -96.99118 | 26366 ft | 485 kts | 102° |
| 2026-04-21 11:53 | 30.68871 | -96.95322 | 25815 ft | 482 kts | 102° |
| 2026-04-21 11:54 | 30.68283 | -96.91502 | 25274 ft | 478 kts | 102° |
| 2026-04-21 11:54 | 30.67698 | -96.87722 | 24735 ft | 474 kts | 102° |
| 2026-04-21 11:54 | 30.67115 | -96.83967 | 24209 ft | 470 kts | 102° |
| 2026-04-21 11:54 | 30.66539 | -96.80254 | 23686 ft | 466 kts | 102° |
| 2026-04-21 11:55 | 30.65966 | -96.76571 | 23158 ft | 459 kts | 102° |
| 2026-04-21 11:55 | 30.65473 | -96.73414 | 22740 ft | 453 kts | 102° |
| 2026-04-21 11:55 | 30.64968 | -96.70183 | 22331 ft | 447 kts | 102° |
| 2026-04-21 11:55 | 30.64414 | -96.66660 | 21868 ft | 440 kts | 102° |
| 2026-04-21 11:56 | 30.63868 | -96.63188 | 21423 ft | 433 kts | 102° |
| 2026-04-21 11:56 | 30.63329 | -96.59770 | 20975 ft | 427 kts | 102° |
| 2026-04-21 11:56 | 30.62796 | -96.56399 | 20528 ft | 422 kts | 102° |
| 2026-04-21 11:56 | 30.62270 | -96.53063 | 20095 ft | 417 kts | 102° |
| 2026-04-21 11:57 | 30.61752 | -96.49781 | 19648 ft | 412 kts | 103° |
| 2026-04-21 11:57 | 30.61233 | -96.46527 | 19186 ft | 409 kts | 103° |
| 2026-04-21 11:57 | 30.60533 | -96.43348 | 18733 ft | 402 kts | 112° |
| 2026-04-21 11:57 | 30.59368 | -96.40432 | 18235 ft | 396 kts | 123° |
| 2026-04-21 11:58 | 30.57820 | -96.37828 | 17775 ft | 389 kts | 130° |
| 2026-04-21 11:58 | 30.56222 | -96.35319 | 17316 ft | 385 kts | 129° |
| 2026-04-21 11:58 | 30.54648 | -96.32825 | 16872 ft | 381 kts | 129° |
| 2026-04-21 11:58 | 30.53095 | -96.30358 | 16418 ft | 378 kts | 129° |
| 2026-04-21 11:59 | 30.51547 | -96.27900 | 15963 ft | 375 kts | 129° |
| 2026-04-21 11:59 | 30.50022 | -96.25480 | 15501 ft | 373 kts | 129° |
| 2026-04-21 11:59 | 30.48493 | -96.23062 | 15021 ft | 371 kts | 129° |
| 2026-04-21 11:59 | 30.46972 | -96.20664 | 14485 ft | 370 kts | 129° |
| 2026-04-21 12:00 | 30.45436 | -96.18251 | 13885 ft | 371 kts | 129° |
| 2026-04-21 12:00 | 30.43902 | -96.15843 | 13268 ft | 371 kts | 129° |
| 2026-04-21 12:00 | 30.42377 | -96.13441 | 12738 ft | 369 kts | 129° |
| 2026-04-21 12:00 | 30.40872 | -96.11070 | 12394 ft | 361 kts | 129° |
| 2026-04-21 12:01 | 30.39410 | -96.08768 | 12247 ft | 348 kts | 129° |
| 2026-04-21 12:01 | 30.38004 | -96.06552 | 12106 ft | 335 kts | 129° |
| 2026-04-21 12:01 | 30.36512 | -96.04561 | 11919 ft | 320 kts | 142° |
| 2026-04-21 12:01 | 30.34724 | -96.03150 | 11773 ft | 305 kts | 157° |
| 2026-04-21 12:02 | 30.32821 | -96.02316 | 11459 ft | 299 kts | 165° |
| 2026-04-21 12:02 | 30.28886 | -96.00879 | 10427 ft | 294 kts | 165° |
| 2026-04-21 12:02 | 30.26944 | -96.00170 | 9912 ft | 292 kts | 165° |
| 2026-04-21 12:03 | 30.25020 | -95.99466 | 9364 ft | 289 kts | 165° |
| 2026-04-21 12:03 | 30.23113 | -95.98767 | 8829 ft | 287 kts | 165° |
| 2026-04-21 12:03 | 30.21229 | -95.98076 | 8537 ft | 283 kts | 165° |
| 2026-04-21 12:03 | 30.19372 | -95.97396 | 8216 ft | 274 kts | 165° |
| 2026-04-21 12:04 | 30.17586 | -95.96737 | 8072 ft | 264 kts | 165° |
| 2026-04-21 12:04 | 30.15868 | -95.96096 | 7943 ft | 255 kts | 162° |
| 2026-04-21 12:04 | 30.14397 | -95.95023 | 7868 ft | 251 kts | 136° |
| 2026-04-21 12:04 | 30.13514 | -95.93318 | 7795 ft | 247 kts | 109° |
| 2026-04-21 12:05 | 30.13182 | -95.91397 | 7670 ft | 239 kts | 103° |
| 2026-04-21 12:05 | 30.12894 | -95.89518 | 7566 ft | 229 kts | 104° |
| 2026-04-21 12:05 | 30.12618 | -95.87746 | 7457 ft | 226 kts | 104° |
| 2026-04-21 12:05 | 30.12332 | -95.85942 | 7352 ft | 227 kts | 104° |
| 2026-04-21 12:06 | 30.12034 | -95.84122 | 7310 ft | 234 kts | 104° |
| 2026-04-21 12:06 | 30.11739 | -95.82274 | 7138 ft | 234 kts | 102° |
| 2026-04-21 12:06 | 30.11605 | -95.80397 | 6998 ft | 235 kts | 96° |
| 2026-04-21 12:06 | 30.11550 | -95.78519 | 6900 ft | 234 kts | 96° |
| 2026-04-21 12:07 | 30.11489 | -95.76638 | 6758 ft | 234 kts | 96° |
| 2026-04-21 12:07 | 30.11429 | -95.74777 | 6615 ft | 233 kts | 95° |
| 2026-04-21 12:07 | 30.11420 | -95.72907 | 6464 ft | 233 kts | 94° |
| 2026-04-21 12:07 | 30.11445 | -95.71063 | 6311 ft | 232 kts | 93° |
| 2026-04-21 12:08 | 30.11477 | -95.69209 | 6151 ft | 229 kts | 93° |
| 2026-04-21 12:08 | 30.11505 | -95.67389 | 6002 ft | 229 kts | 93° |
| 2026-04-21 12:08 | 30.11537 | -95.65556 | 5852 ft | 227 kts | 92° |
| 2026-04-21 12:08 | 30.11570 | -95.63740 | 5704 ft | 226 kts | 92° |
| 2026-04-21 12:09 | 30.11604 | -95.61929 | 5638 ft | 225 kts | 92° |
| 2026-04-21 12:09 | 30.11642 | -95.60121 | 5515 ft | 225 kts | 92° |
| 2026-04-21 12:09 | 30.11678 | -95.58317 | 5393 ft | 224 kts | 92° |
| 2026-04-21 12:09 | 30.11715 | -95.56525 | 5269 ft | 223 kts | 93° |
| 2026-04-21 12:10 | 30.11741 | -95.54715 | 5145 ft | 222 kts | 94° |
| 2026-04-21 12:10 | 30.11756 | -95.52939 | 5023 ft | 221 kts | 94° |
| 2026-04-21 12:10 | 30.11768 | -95.51167 | 4898 ft | 220 kts | 94° |
| 2026-04-21 12:10 | 30.11784 | -95.49427 | 4773 ft | 218 kts | 94° |
| 2026-04-21 12:11 | 30.11803 | -95.47680 | 4635 ft | 217 kts | 94° |
| 2026-04-21 12:11 | 30.11826 | -95.45943 | 4520 ft | 215 kts | 94° |
| 2026-04-21 12:11 | 30.11849 | -95.44225 | 4394 ft | 212 kts | 94° |
| 2026-04-21 12:11 | 30.11881 | -95.42562 | 4293 ft | 201 kts | 93° |
| 2026-04-21 12:12 | 30.11914 | -95.40997 | 4154 ft | 193 kts | 94° |
| 2026-04-21 12:12 | 30.11950 | -95.39482 | 4020 ft | 188 kts | 94° |
| 2026-04-21 12:12 | 30.11990 | -95.37979 | 3896 ft | 186 kts | 94° |
| 2026-04-21 12:12 | 30.12031 | -95.36499 | 3775 ft | 184 kts | 94° |
| 2026-04-21 12:13 | 30.12067 | -95.35032 | 3654 ft | 182 kts | 94° |
| 2026-04-21 12:13 | 30.12104 | -95.33575 | 3530 ft | 181 kts | 94° |
| 2026-04-21 12:13 | 30.12144 | -95.32127 | 3394 ft | 179 kts | 94° |
| 2026-04-21 12:13 | 30.12194 | -95.30694 | 3263 ft | 178 kts | 94° |
| 2026-04-21 12:14 | 30.12243 | -95.29265 | 3139 ft | 178 kts | 93° |
| 2026-04-21 12:14 | 30.12289 | -95.27844 | 3058 ft | 177 kts | 93° |
| 2026-04-21 12:14 | 30.12332 | -95.26424 | 2991 ft | 175 kts | 93° |
| 2026-04-21 12:14 | 30.12376 | -95.25052 | 2876 ft | 167 kts | 93° |
| 2026-04-21 12:15 | 30.12419 | -95.23723 | 2658 ft | 164 kts | 93° |
| 2026-04-21 12:15 | 30.12455 | -95.22410 | 2402 ft | 164 kts | 93° |
| 2026-04-21 12:15 | 30.12455 | -95.21101 | 2150 ft | 161 kts | 105° |
| 2026-04-21 12:15 | 30.11888 | -95.20100 | 2000 ft | 149 kts | 151° |
| 2026-04-21 12:16 | 30.10917 | -95.19692 | 2034 ft | 149 kts | 165° |
| 2026-04-21 12:16 | 30.09884 | -95.19516 | 2019 ft | 151 kts | 171° |
| 2026-04-21 12:16 | 30.08836 | -95.19459 | 1998 ft | 151 kts | 174° |
| 2026-04-21 12:16 | 30.07783 | -95.19433 | 1994 ft | 151 kts | 174° |
| 2026-04-21 12:17 | 30.06731 | -95.19410 | 2000 ft | 151 kts | 174° |
| 2026-04-21 12:17 | 30.05675 | -95.19387 | 1997 ft | 152 kts | 174° |
| 2026-04-21 12:17 | 30.04623 | -95.19366 | 1998 ft | 151 kts | 174° |
| 2026-04-21 12:17 | 30.03583 | -95.19342 | 1992 ft | 152 kts | 174° |
| 2026-04-21 12:18 | 30.02528 | -95.19417 | 1989 ft | 155 kts | 189° |
| 2026-04-21 12:18 | 30.01553 | -95.19991 | 1989 ft | 162 kts | 214° |
| 2026-04-21 12:18 | 30.00881 | -95.21061 | 1981 ft | 172 kts | 243° |
| 2026-04-21 12:18 | 30.00708 | -95.22458 | 1867 ft | 180 kts | 265° |
| 2026-04-21 12:19 | 30.00714 | -95.23900 | 1651 ft | 179 kts | 266° |
| 2026-04-21 12:19 | 30.00718 | -95.25302 | 1433 ft | 169 kts | 266° |
| 2026-04-21 12:19 | 30.00720 | -95.26602 | 1207 ft | 157 kts | 266° |
| 2026-04-21 12:19 | 30.00720 | -95.27836 | 1008 ft | 152 kts | 267° |
| 2026-04-21 12:20 | 30.00723 | -95.29052 | 831 ft | 150 kts | 269° |
| 2026-04-21 12:20 | 30.00723 | -95.30235 | 623 ft | 148 kts | 268° |
| 2026-04-21 12:20 | 30.00719 | -95.31415 | 401 ft | 146 kts | 268° |
| 2026-04-21 12:20 | 30.00720 | -95.32563 | 227 ft | 142 kts | 269° |
| 2026-04-21 12:21 | 30.00715 | -95.33675 | 104 ft | 133 kts | 269° |
| 2026-04-21 12:21 | 30.00720 | -95.34549 | 98 ft | 84 kts | 270° |
| 2026-04-21 12:21 | 30.00720 | -95.35027 | 97 ft | 34 kts | 270° |
| 2026-04-21 12:21 | 30.00705 | -95.35193 | 98 ft | 19 kts | 234° |
| 2026-04-21 12:22 | 30.00690 | -95.35326 | 94 ft | 16 kts | 269° |
| 2026-04-21 12:22 | 30.00661 | -95.35436 | 97 ft | 13 kts | 243° |
| 2026-04-21 12:22 | 30.00636 | -95.35490 | 96 ft | 12 kts | 241° |
| 2026-04-21 12:22 | 30.00617 | -95.35529 | 95 ft | 11 kts | 240° |
| 2026-04-21 12:23 | 30.00583 | -95.35595 | 95 ft | 11 kts | 234° |
| 2026-04-21 12:23 | 30.00504 | -95.35650 | 95 ft | 14 kts | 189° |
| 2026-04-21 12:23 | 30.00400 | -95.35654 | 97 ft | 19 kts | 181° |
| 2026-04-21 12:23 | 30.00232 | -95.35642 | 97 ft | 26 kts | 155° |
| 2026-04-21 12:24 | 30.00101 | -95.35525 | 96 ft | 22 kts | 150° |
| 2026-04-21 12:24 | 29.99965 | -95.35487 | 95 ft | 19 kts | 176° |
| 2026-04-21 12:24 | 29.99822 | -95.35486 | 95 ft | 24 kts | 180° |
| 2026-04-21 12:24 | 29.99634 | -95.35490 | 95 ft | 27 kts | 180° |
| 2026-04-21 12:25 | 29.99444 | -95.35469 | 95 ft | 26 kts | 185° |
| 2026-04-21 12:25 | 29.99304 | -95.35483 | 94 ft | 16 kts | 185° |
| 2026-04-21 12:25 | 29.99201 | -95.35488 | 94 ft | 16 kts | 179° |
| 2026-04-21 12:25 | 29.99054 | -95.35485 | 96 ft | 27 kts | 179° |
| 2026-04-21 12:26 | 29.98852 | -95.35482 | 99 ft | 19 kts | 175° |
| 2026-04-21 12:26 | 29.98752 | -95.35433 | 101 ft | 14 kts | 143° |
| 2026-04-21 12:26 | 29.98745 | -95.35356 | 99 ft | 11 kts | 49° |
| 2026-04-21 12:26 | 29.98835 | -95.35294 | 99 ft | 22 kts | 25° |
| 2026-04-21 12:27 | 29.98903 | -95.35203 | 98 ft | 12 kts | 87° |
| 2026-04-21 12:27 | 29.98895 | -95.35118 | 99 ft | 9 kts | 102° |
| 2026-04-21 12:27 | 29.98884 | -95.35054 | 99 ft | 7 kts | 96° |
| 2026-04-21 12:27 | 29.98884 | -95.35013 | 97 ft | 3 kts | 92° |
| 2026-04-21 12:28 | 29.98883 | -95.35005 | 97 ft | 0 kts | 93° |
| 2026-04-21 12:28 | 29.98883 | -95.35003 | 97 ft | 0 kts | 93° |